sensor_id;sensor_type;location;lat;lon;timestamp;temperature;humidity
3940;DHT22;1984;48.312;9.244;2023-05-19T00:01:06;10.60;99.90
3940;DHT22;1984;48.312;9.244;2023-05-19T00:03:33;10.50;99.90
3940;DHT22;1984;48.312;9.244;2023-05-19T00:06:01;10.50;99.90
3940;DHT22;1984;48.312;9.244;2023-05-19T00:08:31;10.40;99.90
3940;DHT22;1984;48.312;9.244;2023-05-19T00:10:58;10.30;99.90
3940;DHT22;1984;48.312;9.244;2023-05-19T00:13:24;10.30;99.90
3940;DHT22;1984;48.312;9.244;2023-05-19T00:15:49;10.20;99.90
3940;DHT22;1984;48.312;9.244;2023-05-19T00:18:15;10.20;99.90
3940;DHT22;1984;48.312;9.244;2023-05-19T00:20:42;10.30;99.90
3940;DHT22;1984;48.312;9.244;2023-05-19T00:23:09;10.30;99.90
3940;DHT22;1984;48.312;9.244;2023-05-19T00:25:34;10.30;99.90
3940;DHT22;1984;48.312;9.244;2023-05-19T00:28:00;10.20;99.90
3940;DHT22;1984;48.312;9.244;2023-05-19T00:30:26;10.20;99.90
3940;DHT22;1984;48.312;9.244;2023-05-19T00:32:52;10.20;99.90
3940;DHT22;1984;48.312;9.244;2023-05-19T00:35:18;10.20;99.90
3940;DHT22;1984;48.312;9.244;2023-05-19T00:37:44;10.20;99.90
3940;DHT22;1984;48.312;9.244;2023-05-19T00:40:09;10.20;99.90
3940;DHT22;1984;48.312;9.244;2023-05-19T00:42:35;10.20;99.90
3940;DHT22;1984;48.312;9.244;2023-05-19T00:45:01;10.20;99.90
3940;DHT22;1984;48.312;9.244;2023-05-19T00:47:26;10.20;99.90
3940;DHT22;1984;48.312;9.244;2023-05-19T00:49:52;10.20;99.90
3940;DHT22;1984;48.312;9.244;2023-05-19T00:52:17;10.10;99.90
3940;DHT22;1984;48.312;9.244;2023-05-19T00:54:44;10.10;99.90
3940;DHT22;1984;48.312;9.244;2023-05-19T00:57:11;10.10;99.90
3940;DHT22;1984;48.312;9.244;2023-05-19T00:59:38;10.10;99.90
3940;DHT22;1984;48.312;9.244;2023-05-19T01:02:03;10.10;99.90
3940;DHT22;1984;48.312;9.244;2023-05-19T01:04:29;10.10;99.90
3940;DHT22;1984;48.312;9.244;2023-05-19T01:06:59;10.10;99.90
3940;DHT22;1984;48.312;9.244;2023-05-19T01:09:25;10.10;99.90
3940;DHT22;1984;48.312;9.244;2023-05-19T01:11:50;10.00;99.90
3940;DHT22;1984;48.312;9.244;2023-05-19T01:14:17;9.90;99.90
3940;DHT22;1984;48.312;9.244;2023-05-19T01:16:49;9.90;99.90
3940;DHT22;1984;48.312;9.244;2023-05-19T01:22:17;9.90;99.90
3940;DHT22;1984;48.312;9.244;2023-05-19T01:25:31;9.90;99.90
3940;DHT22;1984;48.312;9.244;2023-05-19T01:30:54;9.80;99.90
3940;DHT22;1984;48.312;9.244;2023-05-19T01:33:22;9.80;99.90
3940;DHT22;1984;48.312;9.244;2023-05-19T01:35:49;9.80;99.90
3940;DHT22;1984;48.312;9.244;2023-05-19T01:38:16;9.80;99.90
3940;DHT22;1984;48.312;9.244;2023-05-19T01:40:43;9.80;99.90
3940;DHT22;1984;48.312;9.244;2023-05-19T01:43:15;9.80;99.90
3940;DHT22;1984;48.312;9.244;2023-05-19T01:45:41;9.80;99.90
3940;DHT22;1984;48.312;9.244;2023-05-19T01:48:08;9.80;99.90
3940;DHT22;1984;48.312;9.244;2023-05-19T01:50:33;9.70;99.90
3940;DHT22;1984;48.312;9.244;2023-05-19T01:53:00;9.60;99.90
3940;DHT22;1984;48.312;9.244;2023-05-19T01:55:26;9.70;99.90
3940;DHT22;1984;48.312;9.244;2023-05-19T01:58:20;9.60;99.90
3940;DHT22;1984;48.312;9.244;2023-05-19T02:09:22;9.50;99.90
3940;DHT22;1984;48.312;9.244;2023-05-19T02:12:02;9.50;99.90
3940;DHT22;1984;48.312;9.244;2023-05-19T02:14:34;9.40;99.90
3940;DHT22;1984;48.312;9.244;2023-05-19T02:17:03;9.40;99.90
3940;DHT22;1984;48.312;9.244;2023-05-19T02:19:34;9.40;99.90
3940;DHT22;1984;48.312;9.244;2023-05-19T02:22:00;9.40;99.90
3940;DHT22;1984;48.312;9.244;2023-05-19T02:24:25;9.40;99.90
3940;DHT22;1984;48.312;9.244;2023-05-19T02:26:52;9.40;99.90
3940;DHT22;1984;48.312;9.244;2023-05-19T02:29:18;9.40;99.90
3940;DHT22;1984;48.312;9.244;2023-05-19T02:31:44;9.30;99.90
3940;DHT22;1984;48.312;9.244;2023-05-19T02:34:09;9.30;99.90
3940;DHT22;1984;48.312;9.244;2023-05-19T02:36:35;9.30;99.90
3940;DHT22;1984;48.312;9.244;2023-05-19T02:39:05;9.20;99.90
3940;DHT22;1984;48.312;9.244;2023-05-19T02:41:30;9.20;99.90
3940;DHT22;1984;48.312;9.244;2023-05-19T02:43:56;9.10;99.90
3940;DHT22;1984;48.312;9.244;2023-05-19T02:46:22;9.10;99.90
3940;DHT22;1984;48.312;9.244;2023-05-19T02:48:48;9.10;99.90
3940;DHT22;1984;48.312;9.244;2023-05-19T02:51:13;9.00;99.90
3940;DHT22;1984;48.312;9.244;2023-05-19T02:53:39;9.00;99.90
3940;DHT22;1984;48.312;9.244;2023-05-19T02:56:04;9.00;99.90
3940;DHT22;1984;48.312;9.244;2023-05-19T02:58:30;9.00;99.90
3940;DHT22;1984;48.312;9.244;2023-05-19T03:00:56;8.90;99.90
3940;DHT22;1984;48.312;9.244;2023-05-19T03:03:21;9.00;99.90
3940;DHT22;1984;48.312;9.244;2023-05-19T03:05:47;8.90;99.90
3940;DHT22;1984;48.312;9.244;2023-05-19T03:08:12;8.90;99.90
3940;DHT22;1984;48.312;9.244;2023-05-19T03:10:38;8.90;99.90
3940;DHT22;1984;48.312;9.244;2023-05-19T03:13:04;8.90;99.90
3940;DHT22;1984;48.312;9.244;2023-05-19T03:15:29;8.90;99.90
3940;DHT22;1984;48.312;9.244;2023-05-19T03:17:55;8.90;99.90
3940;DHT22;1984;48.312;9.244;2023-05-19T03:20:20;8.90;99.90
3940;DHT22;1984;48.312;9.244;2023-05-19T03:22:46;8.90;99.90
3940;DHT22;1984;48.312;9.244;2023-05-19T03:25:12;8.90;99.90
3940;DHT22;1984;48.312;9.244;2023-05-19T03:27:37;8.80;99.90
3940;DHT22;1984;48.312;9.244;2023-05-19T03:30:03;8.80;99.90
3940;DHT22;1984;48.312;9.244;2023-05-19T03:32:29;8.80;99.90
3940;DHT22;1984;48.312;9.244;2023-05-19T03:34:57;8.80;99.90
3940;DHT22;1984;48.312;9.244;2023-05-19T03:37:22;8.90;99.90
3940;DHT22;1984;48.312;9.244;2023-05-19T03:39:48;8.90;99.90
3940;DHT22;1984;48.312;9.244;2023-05-19T03:42:13;8.90;99.90
3940;DHT22;1984;48.312;9.244;2023-05-19T03:44:39;8.90;99.90
3940;DHT22;1984;48.312;9.244;2023-05-19T03:47:05;8.90;99.90
3940;DHT22;1984;48.312;9.244;2023-05-19T03:49:30;8.90;99.90
3940;DHT22;1984;48.312;9.244;2023-05-19T03:51:56;8.90;99.90
3940;DHT22;1984;48.312;9.244;2023-05-19T03:54:22;8.90;99.90
3940;DHT22;1984;48.312;9.244;2023-05-19T03:56:47;8.90;99.90
3940;DHT22;1984;48.312;9.244;2023-05-19T03:59:13;8.90;99.90
3940;DHT22;1984;48.312;9.244;2023-05-19T04:01:40;8.80;99.90
3940;DHT22;1984;48.312;9.244;2023-05-19T04:04:06;8.80;99.90
3940;DHT22;1984;48.312;9.244;2023-05-19T04:06:31;8.70;99.90
3940;DHT22;1984;48.312;9.244;2023-05-19T04:08:58;8.70;99.90
3940;DHT22;1984;48.312;9.244;2023-05-19T04:11:23;8.80;99.90
3940;DHT22;1984;48.312;9.244;2023-05-19T04:13:49;8.80;99.90
3940;DHT22;1984;48.312;9.244;2023-05-19T04:16:15;8.80;99.90
3940;DHT22;1984;48.312;9.244;2023-05-19T04:18:40;8.80;99.90
3940;DHT22;1984;48.312;9.244;2023-05-19T04:21:06;8.80;99.90
3940;DHT22;1984;48.312;9.244;2023-05-19T04:23:32;8.90;99.90
3940;DHT22;1984;48.312;9.244;2023-05-19T04:25:58;8.90;99.90
3940;DHT22;1984;48.312;9.244;2023-05-19T04:28:25;8.90;99.90
3940;DHT22;1984;48.312;9.244;2023-05-19T04:30:51;9.00;99.90
3940;DHT22;1984;48.312;9.244;2023-05-19T04:33:17;9.00;99.90
3940;DHT22;1984;48.312;9.244;2023-05-19T04:35:44;9.00;99.90
3940;DHT22;1984;48.312;9.244;2023-05-19T04:38:10;9.00;99.90
3940;DHT22;1984;48.312;9.244;2023-05-19T04:40:36;9.00;99.90
3940;DHT22;1984;48.312;9.244;2023-05-19T04:43:02;9.00;99.90
3940;DHT22;1984;48.312;9.244;2023-05-19T04:45:27;9.00;99.90
3940;DHT22;1984;48.312;9.244;2023-05-19T04:47:53;9.00;99.90
3940;DHT22;1984;48.312;9.244;2023-05-19T04:50:22;9.10;99.90
3940;DHT22;1984;48.312;9.244;2023-05-19T04:52:48;9.20;99.90
3940;DHT22;1984;48.312;9.244;2023-05-19T04:55:14;9.30;99.90
3940;DHT22;1984;48.312;9.244;2023-05-19T04:57:40;9.40;99.90
3940;DHT22;1984;48.312;9.244;2023-05-19T05:00:07;9.50;99.90
3940;DHT22;1984;48.312;9.244;2023-05-19T05:02:36;9.50;99.90
3940;DHT22;1984;48.312;9.244;2023-05-19T05:05:02;9.50;99.90
3940;DHT22;1984;48.312;9.244;2023-05-19T05:07:28;9.50;99.90
3940;DHT22;1984;48.312;9.244;2023-05-19T05:09:53;9.50;99.90
3940;DHT22;1984;48.312;9.244;2023-05-19T05:12:20;9.50;99.90
3940;DHT22;1984;48.312;9.244;2023-05-19T05:14:46;9.60;99.90
3940;DHT22;1984;48.312;9.244;2023-05-19T05:17:12;9.70;99.90
3940;DHT22;1984;48.312;9.244;2023-05-19T05:19:38;9.70;99.90
3940;DHT22;1984;48.312;9.244;2023-05-19T05:22:04;9.70;99.90
3940;DHT22;1984;48.312;9.244;2023-05-19T05:24:30;9.80;99.90
3940;DHT22;1984;48.312;9.244;2023-05-19T05:26:57;9.70;99.90
3940;DHT22;1984;48.312;9.244;2023-05-19T05:29:23;9.70;99.90
3940;DHT22;1984;48.312;9.244;2023-05-19T05:31:49;9.70;99.90
3940;DHT22;1984;48.312;9.244;2023-05-19T05:34:14;9.60;99.90
3940;DHT22;1984;48.312;9.244;2023-05-19T05:36:40;9.70;99.90
3940;DHT22;1984;48.312;9.244;2023-05-19T05:39:05;9.90;99.90
3940;DHT22;1984;48.312;9.244;2023-05-19T05:41:31;9.90;99.90
3940;DHT22;1984;48.312;9.244;2023-05-19T05:44:00;9.80;99.90
3940;DHT22;1984;48.312;9.244;2023-05-19T05:46:26;9.80;99.90
3940;DHT22;1984;48.312;9.244;2023-05-19T05:48:51;9.90;99.90
3940;DHT22;1984;48.312;9.244;2023-05-19T05:51:20;9.90;99.90
3940;DHT22;1984;48.312;9.244;2023-05-19T05:53:53;10.00;99.90
3940;DHT22;1984;48.312;9.244;2023-05-19T05:56:19;10.10;99.90
3940;DHT22;1984;48.312;9.244;2023-05-19T05:58:46;10.10;99.90
3940;DHT22;1984;48.312;9.244;2023-05-19T06:01:11;10.10;99.90
3940;DHT22;1984;48.312;9.244;2023-05-19T06:03:41;10.20;99.90
3940;DHT22;1984;48.312;9.244;2023-05-19T06:06:08;10.30;99.90
3940;DHT22;1984;48.312;9.244;2023-05-19T06:08:34;10.30;99.90
3940;DHT22;1984;48.312;9.244;2023-05-19T06:11:00;10.30;99.90
3940;DHT22;1984;48.312;9.244;2023-05-19T06:13:25;10.30;99.90
3940;DHT22;1984;48.312;9.244;2023-05-19T06:15:51;10.30;99.90
3940;DHT22;1984;48.312;9.244;2023-05-19T06:18:17;10.40;99.90
3940;DHT22;1984;48.312;9.244;2023-05-19T06:20:43;10.60;99.90
3940;DHT22;1984;48.312;9.244;2023-05-19T06:23:08;10.80;99.90
3940;DHT22;1984;48.312;9.244;2023-05-19T06:25:34;11.00;99.90
3940;DHT22;1984;48.312;9.244;2023-05-19T06:27:59;11.20;99.90
3940;DHT22;1984;48.312;9.244;2023-05-19T06:30:25;11.40;99.90
3940;DHT22;1984;48.312;9.244;2023-05-19T06:32:50;11.60;99.90
3940;DHT22;1984;48.312;9.244;2023-05-19T06:35:16;11.50;99.90
3940;DHT22;1984;48.312;9.244;2023-05-19T06:37:41;11.60;99.90
3940;DHT22;1984;48.312;9.244;2023-05-19T06:40:07;11.50;99.90
3940;DHT22;1984;48.312;9.244;2023-05-19T06:42:33;11.40;99.90
3940;DHT22;1984;48.312;9.244;2023-05-19T06:44:58;11.40;99.90
3940;DHT22;1984;48.312;9.244;2023-05-19T06:47:24;11.40;99.90
3940;DHT22;1984;48.312;9.244;2023-05-19T06:49:50;11.30;99.90
3940;DHT22;1984;48.312;9.244;2023-05-19T06:52:19;11.30;99.90
3940;DHT22;1984;48.312;9.244;2023-05-19T06:54:45;11.20;99.90
3940;DHT22;1984;48.312;9.244;2023-05-19T06:57:10;11.20;99.90
3940;DHT22;1984;48.312;9.244;2023-05-19T06:59:36;11.20;99.90
3940;DHT22;1984;48.312;9.244;2023-05-19T07:02:02;11.40;99.90
3940;DHT22;1984;48.312;9.244;2023-05-19T07:04:28;11.70;99.90
3940;DHT22;1984;48.312;9.244;2023-05-19T07:06:54;11.80;99.90
3940;DHT22;1984;48.312;9.244;2023-05-19T07:09:20;12.10;99.90
3940;DHT22;1984;48.312;9.244;2023-05-19T07:11:45;12.40;99.90
3940;DHT22;1984;48.312;9.244;2023-05-19T07:14:11;12.40;99.90
3940;DHT22;1984;48.312;9.244;2023-05-19T07:16:36;12.50;99.90
3940;DHT22;1984;48.312;9.244;2023-05-19T07:19:02;12.50;99.90
3940;DHT22;1984;48.312;9.244;2023-05-19T07:21:27;12.50;99.90
3940;DHT22;1984;48.312;9.244;2023-05-19T07:23:53;12.40;99.90
3940;DHT22;1984;48.312;9.244;2023-05-19T07:26:18;12.30;99.90
3940;DHT22;1984;48.312;9.244;2023-05-19T07:28:44;12.10;99.90
3940;DHT22;1984;48.312;9.244;2023-05-19T07:31:09;11.90;99.90
3940;DHT22;1984;48.312;9.244;2023-05-19T07:33:35;11.80;99.90
3940;DHT22;1984;48.312;9.244;2023-05-19T07:36:00;11.70;99.90
3940;DHT22;1984;48.312;9.244;2023-05-19T07:38:26;11.80;99.90
3940;DHT22;1984;48.312;9.244;2023-05-19T07:40:53;11.70;99.90
3940;DHT22;1984;48.312;9.244;2023-05-19T07:43:18;11.70;99.90
3940;DHT22;1984;48.312;9.244;2023-05-19T07:45:44;11.80;99.90
3940;DHT22;1984;48.312;9.244;2023-05-19T07:48:09;11.90;99.90
3940;DHT22;1984;48.312;9.244;2023-05-19T07:50:35;12.00;99.90
3940;DHT22;1984;48.312;9.244;2023-05-19T07:53:01;12.10;99.90
3940;DHT22;1984;48.312;9.244;2023-05-19T07:55:26;12.40;99.90
3940;DHT22;1984;48.312;9.244;2023-05-19T07:57:52;12.70;99.90
3940;DHT22;1984;48.312;9.244;2023-05-19T08:00:17;13.00;99.90
3940;DHT22;1984;48.312;9.244;2023-05-19T08:02:43;13.10;99.90
3940;DHT22;1984;48.312;9.244;2023-05-19T08:05:09;13.10;99.90
3940;DHT22;1984;48.312;9.244;2023-05-19T08:07:35;13.20;99.90
3940;DHT22;1984;48.312;9.244;2023-05-19T08:10:01;13.20;99.90
3940;DHT22;1984;48.312;9.244;2023-05-19T08:12:27;13.10;99.90
3940;DHT22;1984;48.312;9.244;2023-05-19T08:14:52;13.10;99.90
3940;DHT22;1984;48.312;9.244;2023-05-19T08:17:18;12.90;99.90
3940;DHT22;1984;48.312;9.244;2023-05-19T08:19:44;13.00;99.90
3940;DHT22;1984;48.312;9.244;2023-05-19T08:22:09;13.00;99.90
3940;DHT22;1984;48.312;9.244;2023-05-19T08:24:35;12.90;99.90
3940;DHT22;1984;48.312;9.244;2023-05-19T08:27:00;12.90;99.90
3940;DHT22;1984;48.312;9.244;2023-05-19T08:29:26;13.10;99.90
3940;DHT22;1984;48.312;9.244;2023-05-19T08:31:51;13.10;99.90
3940;DHT22;1984;48.312;9.244;2023-05-19T08:34:18;13.00;99.90
3940;DHT22;1984;48.312;9.244;2023-05-19T08:36:43;12.80;99.90
3940;DHT22;1984;48.312;9.244;2023-05-19T08:39:10;12.80;99.90
3940;DHT22;1984;48.312;9.244;2023-05-19T08:41:36;12.80;99.90
3940;DHT22;1984;48.312;9.244;2023-05-19T08:44:02;12.70;99.90
3940;DHT22;1984;48.312;9.244;2023-05-19T08:46:28;12.70;99.90
3940;DHT22;1984;48.312;9.244;2023-05-19T08:48:57;12.60;99.90
3940;DHT22;1984;48.312;9.244;2023-05-19T08:51:32;12.50;99.90
3940;DHT22;1984;48.312;9.244;2023-05-19T08:54:11;12.40;99.90
3940;DHT22;1984;48.312;9.244;2023-05-19T08:56:39;12.50;99.90
3940;DHT22;1984;48.312;9.244;2023-05-19T08:59:05;12.60;99.90
3940;DHT22;1984;48.312;9.244;2023-05-19T09:01:32;12.80;99.90
3940;DHT22;1984;48.312;9.244;2023-05-19T09:03:58;12.80;99.90
3940;DHT22;1984;48.312;9.244;2023-05-19T09:06:24;12.70;99.90
3940;DHT22;1984;48.312;9.244;2023-05-19T09:08:50;12.70;99.90
3940;DHT22;1984;48.312;9.244;2023-05-19T09:11:16;12.60;99.90
3940;DHT22;1984;48.312;9.244;2023-05-19T09:13:41;12.40;99.90
3940;DHT22;1984;48.312;9.244;2023-05-19T09:16:08;12.40;99.90
3940;DHT22;1984;48.312;9.244;2023-05-19T09:18:33;12.70;99.90
3940;DHT22;1984;48.312;9.244;2023-05-19T09:21:02;13.20;99.90
3940;DHT22;1984;48.312;9.244;2023-05-19T09:23:31;13.90;99.90
3940;DHT22;1984;48.312;9.244;2023-05-19T09:26:01;14.00;99.90
3940;DHT22;1984;48.312;9.244;2023-05-19T09:28:29;14.00;99.90
3940;DHT22;1984;48.312;9.244;2023-05-19T09:31:07;13.90;99.90
3940;DHT22;1984;48.312;9.244;2023-05-19T09:33:37;14.00;99.90
3940;DHT22;1984;48.312;9.244;2023-05-19T09:36:03;14.00;99.90
3940;DHT22;1984;48.312;9.244;2023-05-19T09:38:36;13.90;99.90
3940;DHT22;1984;48.312;9.244;2023-05-19T09:41:04;13.80;99.90
3940;DHT22;1984;48.312;9.244;2023-05-19T09:43:31;13.70;99.90
3940;DHT22;1984;48.312;9.244;2023-05-19T09:46:05;13.90;99.90
3940;DHT22;1984;48.312;9.244;2023-05-19T09:48:32;13.90;99.90
3940;DHT22;1984;48.312;9.244;2023-05-19T09:50:59;13.90;99.90
3940;DHT22;1984;48.312;9.244;2023-05-19T09:53:25;13.80;99.90
3940;DHT22;1984;48.312;9.244;2023-05-19T09:55:54;13.90;99.90
3940;DHT22;1984;48.312;9.244;2023-05-19T09:58:24;13.80;99.90
3940;DHT22;1984;48.312;9.244;2023-05-19T10:00:51;13.80;99.90
3940;DHT22;1984;48.312;9.244;2023-05-19T10:03:19;13.70;99.90
3940;DHT22;1984;48.312;9.244;2023-05-19T10:05:46;13.70;99.90
3940;DHT22;1984;48.312;9.244;2023-05-19T10:08:12;13.60;99.90
3940;DHT22;1984;48.312;9.244;2023-05-19T10:10:38;13.50;99.90
3940;DHT22;1984;48.312;9.244;2023-05-19T10:13:04;13.30;99.90
3940;DHT22;1984;48.312;9.244;2023-05-19T10:15:30;13.40;99.90
3940;DHT22;1984;48.312;9.244;2023-05-19T10:17:57;13.40;99.90
3940;DHT22;1984;48.312;9.244;2023-05-19T10:20:25;13.40;99.90
3940;DHT22;1984;48.312;9.244;2023-05-19T10:22:51;13.50;99.90
3940;DHT22;1984;48.312;9.244;2023-05-19T10:25:16;13.50;99.90
3940;DHT22;1984;48.312;9.244;2023-05-19T10:30:28;13.40;99.90
3940;DHT22;1984;48.312;9.244;2023-05-19T10:32:54;13.50;99.90
3940;DHT22;1984;48.312;9.244;2023-05-19T10:35:27;13.50;99.90
3940;DHT22;1984;48.312;9.244;2023-05-19T10:46:10;13.00;99.90
3940;DHT22;1984;48.312;9.244;2023-05-19T10:48:36;12.80;99.90
3940;DHT22;1984;48.312;9.244;2023-05-19T10:51:02;12.70;99.90
3940;DHT22;1984;48.312;9.244;2023-05-19T10:53:32;12.50;99.90
3940;DHT22;1984;48.312;9.244;2023-05-19T10:56:00;12.60;99.90
3940;DHT22;1984;48.312;9.244;2023-05-19T10:58:57;12.70;99.90
3940;DHT22;1984;48.312;9.244;2023-05-19T11:01:30;12.70;99.90
3940;DHT22;1984;48.312;9.244;2023-05-19T11:03:56;12.70;99.90
3940;DHT22;1984;48.312;9.244;2023-05-19T11:06:29;12.70;99.90
3940;DHT22;1984;48.312;9.244;2023-05-19T11:09:13;12.70;99.90
3940;DHT22;1984;48.312;9.244;2023-05-19T11:11:52;12.70;99.90
3940;DHT22;1984;48.312;9.244;2023-05-19T11:14:24;12.70;99.90
3940;DHT22;1984;48.312;9.244;2023-05-19T11:16:53;12.80;99.90
3940;DHT22;1984;48.312;9.244;2023-05-19T11:19:28;12.80;99.90
3940;DHT22;1984;48.312;9.244;2023-05-19T11:21:55;12.80;99.90
3940;DHT22;1984;48.312;9.244;2023-05-19T11:24:45;12.80;99.90
3940;DHT22;1984;48.312;9.244;2023-05-19T11:27:28;12.70;99.90
3940;DHT22;1984;48.312;9.244;2023-05-19T11:29:59;12.50;99.90
3940;DHT22;1984;48.312;9.244;2023-05-19T11:32:30;12.40;99.90
3940;DHT22;1984;48.312;9.244;2023-05-19T11:34:58;12.40;99.90
3940;DHT22;1984;48.312;9.244;2023-05-19T11:37:24;12.40;99.90
3940;DHT22;1984;48.312;9.244;2023-05-19T11:39:50;12.30;99.90
3940;DHT22;1984;48.312;9.244;2023-05-19T11:42:17;12.20;99.90
3940;DHT22;1984;48.312;9.244;2023-05-19T11:44:43;12.30;99.90
3940;DHT22;1984;48.312;9.244;2023-05-19T11:47:11;12.30;99.90
3940;DHT22;1984;48.312;9.244;2023-05-19T11:49:36;12.40;99.90
3940;DHT22;1984;48.312;9.244;2023-05-19T11:52:03;12.50;99.90
3940;DHT22;1984;48.312;9.244;2023-05-19T11:54:30;12.50;99.90
3940;DHT22;1984;48.312;9.244;2023-05-19T11:56:59;12.50;99.90
3940;DHT22;1984;48.312;9.244;2023-05-19T12:01:56;12.70;99.90
3940;DHT22;1984;48.312;9.244;2023-05-19T12:04:22;12.60;99.90
3940;DHT22;1984;48.312;9.244;2023-05-19T12:06:50;12.60;99.90
3940;DHT22;1984;48.312;9.244;2023-05-19T12:09:17;12.40;99.90
3940;DHT22;1984;48.312;9.244;2023-05-19T12:11:43;12.50;99.90
3940;DHT22;1984;48.312;9.244;2023-05-19T12:14:09;12.60;99.90
3940;DHT22;1984;48.312;9.244;2023-05-19T12:16:34;12.70;99.90
3940;DHT22;1984;48.312;9.244;2023-05-19T12:19:01;12.80;99.90
3940;DHT22;1984;48.312;9.244;2023-05-19T12:21:29;12.90;99.90
3940;DHT22;1984;48.312;9.244;2023-05-19T12:23:55;12.90;99.90
3940;DHT22;1984;48.312;9.244;2023-05-19T12:26:21;12.80;99.90
3940;DHT22;1984;48.312;9.244;2023-05-19T12:28:48;12.70;99.90
3940;DHT22;1984;48.312;9.244;2023-05-19T12:31:15;12.70;99.90
3940;DHT22;1984;48.312;9.244;2023-05-19T12:33:41;12.80;99.90
3940;DHT22;1984;48.312;9.244;2023-05-19T12:36:08;12.90;99.90
3940;DHT22;1984;48.312;9.244;2023-05-19T12:38:34;13.00;99.90
3940;DHT22;1984;48.312;9.244;2023-05-19T12:41:01;13.10;99.90
3940;DHT22;1984;48.312;9.244;2023-05-19T12:43:27;13.30;99.90
3940;DHT22;1984;48.312;9.244;2023-05-19T12:45:52;13.40;99.90
3940;DHT22;1984;48.312;9.244;2023-05-19T12:48:20;13.40;99.90
3940;DHT22;1984;48.312;9.244;2023-05-19T12:50:47;13.40;99.90
3940;DHT22;1984;48.312;9.244;2023-05-19T12:53:14;13.30;99.90
3940;DHT22;1984;48.312;9.244;2023-05-19T12:55:44;13.30;99.90
3940;DHT22;1984;48.312;9.244;2023-05-19T12:58:10;13.30;99.90
3940;DHT22;1984;48.312;9.244;2023-05-19T13:00:44;13.30;99.90
3940;DHT22;1984;48.312;9.244;2023-05-19T13:03:20;13.40;99.90
3940;DHT22;1984;48.312;9.244;2023-05-19T13:05:47;13.30;99.90
3940;DHT22;1984;48.312;9.244;2023-05-19T13:08:18;13.20;99.90
3940;DHT22;1984;48.312;9.244;2023-05-19T13:10:45;13.30;99.90
3940;DHT22;1984;48.312;9.244;2023-05-19T13:13:11;13.40;99.90
3940;DHT22;1984;48.312;9.244;2023-05-19T13:15:40;13.30;99.90
3940;DHT22;1984;48.312;9.244;2023-05-19T13:18:08;13.30;99.90
3940;DHT22;1984;48.312;9.244;2023-05-19T13:20:35;13.10;99.90
3940;DHT22;1984;48.312;9.244;2023-05-19T13:23:01;13.00;99.90
3940;DHT22;1984;48.312;9.244;2023-05-19T13:25:27;13.10;99.90
3940;DHT22;1984;48.312;9.244;2023-05-19T13:27:53;12.90;99.90
3940;DHT22;1984;48.312;9.244;2023-05-19T13:30:19;12.90;99.90
3940;DHT22;1984;48.312;9.244;2023-05-19T13:32:46;13.00;99.90
3940;DHT22;1984;48.312;9.244;2023-05-19T13:35:13;13.10;99.90
3940;DHT22;1984;48.312;9.244;2023-05-19T13:37:41;13.00;99.90
3940;DHT22;1984;48.312;9.244;2023-05-19T13:40:07;13.00;99.90
3940;DHT22;1984;48.312;9.244;2023-05-19T13:42:33;12.90;99.90
3940;DHT22;1984;48.312;9.244;2023-05-19T13:44:59;12.90;99.90
3940;DHT22;1984;48.312;9.244;2023-05-19T13:47:25;12.80;99.90
3940;DHT22;1984;48.312;9.244;2023-05-19T13:49:51;12.90;99.90
3940;DHT22;1984;48.312;9.244;2023-05-19T13:52:17;12.90;99.90
3940;DHT22;1984;48.312;9.244;2023-05-19T13:54:43;13.10;99.90
3940;DHT22;1984;48.312;9.244;2023-05-19T13:57:08;13.20;99.90
3940;DHT22;1984;48.312;9.244;2023-05-19T13:59:34;13.20;99.90
3940;DHT22;1984;48.312;9.244;2023-05-19T14:02:00;13.20;99.90
3940;DHT22;1984;48.312;9.244;2023-05-19T14:04:27;13.00;99.90
3940;DHT22;1984;48.312;9.244;2023-05-19T14:06:52;13.00;99.90
3940;DHT22;1984;48.312;9.244;2023-05-19T14:09:18;12.90;99.90
3940;DHT22;1984;48.312;9.244;2023-05-19T14:11:44;12.90;99.90
3940;DHT22;1984;48.312;9.244;2023-05-19T14:14:10;12.90;99.90
3940;DHT22;1984;48.312;9.244;2023-05-19T14:16:35;12.80;99.90
3940;DHT22;1984;48.312;9.244;2023-05-19T14:19:01;12.90;99.90
3940;DHT22;1984;48.312;9.244;2023-05-19T14:21:26;12.90;99.90
3940;DHT22;1984;48.312;9.244;2023-05-19T14:23:52;12.90;99.90
3940;DHT22;1984;48.312;9.244;2023-05-19T14:26:18;12.90;99.90
3940;DHT22;1984;48.312;9.244;2023-05-19T14:28:44;12.80;99.90
3940;DHT22;1984;48.312;9.244;2023-05-19T14:31:10;12.70;99.90
3940;DHT22;1984;48.312;9.244;2023-05-19T14:33:36;12.60;99.90
3940;DHT22;1984;48.312;9.244;2023-05-19T14:36:02;12.50;99.90
3940;DHT22;1984;48.312;9.244;2023-05-19T14:38:29;12.50;99.90
3940;DHT22;1984;48.312;9.244;2023-05-19T14:40:55;12.40;99.90
3940;DHT22;1984;48.312;9.244;2023-05-19T14:43:20;12.50;99.90
3940;DHT22;1984;48.312;9.244;2023-05-19T14:45:46;12.50;99.90
3940;DHT22;1984;48.312;9.244;2023-05-19T14:48:11;12.60;99.90
3940;DHT22;1984;48.312;9.244;2023-05-19T14:50:37;12.80;99.90
3940;DHT22;1984;48.312;9.244;2023-05-19T14:53:03;12.80;99.90
3940;DHT22;1984;48.312;9.244;2023-05-19T14:55:29;12.90;99.90
3940;DHT22;1984;48.312;9.244;2023-05-19T14:57:54;12.80;99.90
3940;DHT22;1984;48.312;9.244;2023-05-19T15:00:20;12.70;99.90
3940;DHT22;1984;48.312;9.244;2023-05-19T15:02:45;12.70;99.90
3940;DHT22;1984;48.312;9.244;2023-05-19T15:05:12;12.70;99.90
3940;DHT22;1984;48.312;9.244;2023-05-19T15:07:37;12.70;99.90
3940;DHT22;1984;48.312;9.244;2023-05-19T15:10:03;12.80;99.90
3940;DHT22;1984;48.312;9.244;2023-05-19T15:12:30;12.90;99.90
3940;DHT22;1984;48.312;9.244;2023-05-19T15:14:56;13.00;99.90
3940;DHT22;1984;48.312;9.244;2023-05-19T15:17:21;13.00;99.90
3940;DHT22;1984;48.312;9.244;2023-05-19T15:19:47;12.90;99.90
3940;DHT22;1984;48.312;9.244;2023-05-19T15:22:12;12.70;99.90
3940;DHT22;1984;48.312;9.244;2023-05-19T15:24:38;12.80;99.90
3940;DHT22;1984;48.312;9.244;2023-05-19T15:27:06;12.70;99.90
3940;DHT22;1984;48.312;9.244;2023-05-19T15:29:31;12.70;99.90
3940;DHT22;1984;48.312;9.244;2023-05-19T15:31:57;12.70;99.90
3940;DHT22;1984;48.312;9.244;2023-05-19T15:34:22;12.80;99.90
3940;DHT22;1984;48.312;9.244;2023-05-19T15:36:48;12.90;99.90
3940;DHT22;1984;48.312;9.244;2023-05-19T15:39:13;12.80;99.90
3940;DHT22;1984;48.312;9.244;2023-05-19T15:41:39;12.80;99.90
3940;DHT22;1984;48.312;9.244;2023-05-19T15:44:04;12.70;99.90
3940;DHT22;1984;48.312;9.244;2023-05-19T15:46:31;12.70;99.90
3940;DHT22;1984;48.312;9.244;2023-05-19T15:48:57;12.80;99.90
3940;DHT22;1984;48.312;9.244;2023-05-19T15:51:23;12.80;99.90
3940;DHT22;1984;48.312;9.244;2023-05-19T15:53:48;12.90;99.90
3940;DHT22;1984;48.312;9.244;2023-05-19T15:56:14;13.00;99.90
3940;DHT22;1984;48.312;9.244;2023-05-19T15:58:39;13.00;99.90
3940;DHT22;1984;48.312;9.244;2023-05-19T16:01:06;12.90;99.90
3940;DHT22;1984;48.312;9.244;2023-05-19T16:03:32;12.90;99.90
3940;DHT22;1984;48.312;9.244;2023-05-19T16:05:57;12.90;99.90
3940;DHT22;1984;48.312;9.244;2023-05-19T16:08:23;12.90;99.90
3940;DHT22;1984;48.312;9.244;2023-05-19T16:10:49;13.00;99.90
3940;DHT22;1984;48.312;9.244;2023-05-19T16:13:14;12.90;99.90
3940;DHT22;1984;48.312;9.244;2023-05-19T16:15:40;12.80;99.90
3940;DHT22;1984;48.312;9.244;2023-05-19T16:18:06;12.80;99.90
3940;DHT22;1984;48.312;9.244;2023-05-19T16:20:31;12.60;99.90
3940;DHT22;1984;48.312;9.244;2023-05-19T16:22:57;12.50;99.90
3940;DHT22;1984;48.312;9.244;2023-05-19T16:25:22;12.50;99.90
3940;DHT22;1984;48.312;9.244;2023-05-19T16:27:49;12.50;99.90
3940;DHT22;1984;48.312;9.244;2023-05-19T16:30:14;12.50;99.90
3940;DHT22;1984;48.312;9.244;2023-05-19T16:32:41;12.50;99.90